Time;durP1;ratioP1;P1;durP2;ratioP2;P2;SDS_P1;SDS_P2;PMS_P1;PMS_P2;Temp;Humidity;BMP_temperature;BMP_pressure;BME280_temperature;BME280_humidity;BME280_pressure;Samples;Min_cycle;Max_cycle;Signal;HPM_P1;HPM_P2
2022/06/23 00:00:50;;;;;;;3.47;1.20;;;19.20;94.20;;;;;;7335411;32;20659;-61
2022/06/23 00:04:56;;;;;;;2.35;1.20;;;19.00;94.50;;;;;;7341145;32;20255;-62
2022/06/23 00:08:57;;;;;;;2.97;1.20;;;19.00;94.70;;;;;;7345591;32;20150;-61
2022/06/23 00:13:00;;;;;;;3.00;1.10;;;18.90;95.40;;;;;;7348259;32;20541;-60
2022/06/23 00:17:40;;;;;;;3.37;1.42;;;18.90;95.90;;;;;;7351261;32;20115;-62
2022/06/23 00:21:51;;;;;;;4.43;1.40;;;18.70;96.70;;;;;;7342736;32;20221;-61
2022/06/23 00:26:18;;;;;;;3.45;1.30;;;18.60;97.90;;;;;;7350950;32;20522;-61
2022/06/23 00:30:28;;;;;;;9.23;1.35;;;18.40;99.20;;;;;;7341546;32;20107;-60
2022/06/23 00:34:42;;;;;;;3.87;1.33;;;18.40;98.80;;;;;;7354070;32;20531;-61
2022/06/23 00:38:44;;;;;;;2.83;1.20;;;18.30;99.30;;;;;;7346496;32;20392;-61
2022/06/23 00:43:02;;;;;;;2.08;1.35;;;18.30;99.90;;;;;;7347472;32;20207;-61
2022/06/23 00:47:12;;;;;;;5.40;1.90;;;18.20;99.90;;;;;;7347396;32;20133;-61
2022/06/23 00:51:32;;;;;;;2.90;1.30;;;18.10;99.90;;;;;;7343229;32;20115;-61
2022/06/23 00:55:46;;;;;;;5.20;1.48;;;17.90;99.90;;;;;;7346501;32;20268;-61
2022/06/23 00:59:54;;;;;;;6.12;1.35;;;17.80;99.90;;;;;;7342227;32;20130;-61
2022/06/23 01:04:01;;;;;;;3.25;1.40;;;17.70;99.90;;;;;;7351032;32;20558;-61
2022/06/23 01:08:23;;;;;;;4.18;1.35;;;17.60;99.90;;;;;;7348837;32;20134;-61
2022/06/23 01:12:51;;;;;;;3.50;1.73;;;17.30;99.90;;;;;;7346715;32;20226;-61
2022/06/23 01:17:01;;;;;;;2.47;1.30;;;17.00;99.90;;;;;;7340197;32;20126;-61
2022/06/23 01:21:20;;;;;;;3.78;1.60;;;16.70;99.90;;;;;;7346612;32;20215;-61
2022/06/23 01:26:00;;;;;;;4.93;1.80;;;16.50;99.90;;;;;;7350356;32;20281;-61
2022/06/23 01:30:08;;;;;;;3.33;1.40;;;16.20;99.90;;;;;;7345353;32;20120;-60
2022/06/23 01:34:51;;;;;;;6.45;1.40;;;16.00;99.90;;;;;;7347935;32;20615;-60
2022/06/23 01:38:59;;;;;;;6.22;2.00;;;15.90;99.90;;;;;;7268182;32;20203;-61
2022/06/23 01:43:11;;;;;;;;;;;15.70;99.90;;;;;;7308373;32;20240;-61
2022/06/23 01:47:38;;;;;;;6.12;1.60;;;15.60;99.90;;;;;;7342625;32;20033;-61
2022/06/23 01:51:46;;;;;;;2.47;1.73;;;15.50;99.90;;;;;;7339238;32;20524;-60
2022/06/23 01:56:04;;;;;;;;;;;15.40;99.90;;;;;;7341436;32;20110;-61
2022/06/23 02:00:20;;;;;;;4.78;2.10;;;15.30;99.90;;;;;;7344151;32;20125;-61
2022/06/23 02:04:37;;;;;;;4.53;1.98;;;15.10;99.90;;;;;;7346256;32;20111;-61
2022/06/23 02:09:01;;;;;;;4.45;1.87;;;15.00;99.90;;;;;;7337626;32;20234;-61
2022/06/23 02:13:10;;;;;;;3.80;2.00;;;15.00;99.90;;;;;;7343080;32;20119;-61
2022/06/23 02:17:42;;;;;;;4.50;2.00;;;14.80;99.90;;;;;;7343396;32;20111;-60
2022/06/23 02:21:50;;;;;;;5.82;2.10;;;14.70;99.90;;;;;;7340124;32;20613;-60
2022/06/23 02:26:12;;;;;;;3.10;1.95;;;14.70;99.90;;;;;;7338156;32;20363;-61
2022/06/23 02:30:35;;;;;;;8.00;2.12;;;14.60;99.90;;;;;;7343803;32;20641;-61
2022/06/23 02:34:49;;;;;;;3.50;2.33;;;14.50;99.90;;;;;;7349361;32;20228;-61
2022/06/23 02:38:57;;;;;;;4.82;2.12;;;14.40;99.90;;;;;;7345736;32;20162;-61
2022/06/23 02:43:13;;;;;;;2.92;1.90;;;14.40;99.90;;;;;;7340240;32;20131;-61
2022/06/23 02:47:47;;;;;;;9.02;2.35;;;14.30;99.90;;;;;;7343466;32;20665;-60
2022/06/23 02:52:23;;;;;;;4.62;2.50;;;14.30;99.90;;;;;;7340674;32;20166;-60
2022/06/23 02:56:47;;;;;;;4.37;2.58;;;14.10;99.90;;;;;;7345550;32;20480;-61
2022/06/23 03:00:56;;;;;;;3.67;2.50;;;14.00;99.90;;;;;;7329122;32;20344;-60
2022/06/23 03:05:05;;;;;;;6.18;2.10;;;14.00;99.90;;;;;;7347612;32;20149;-61
2022/06/23 03:09:14;;;;;;;6.68;2.20;;;14.00;99.90;;;;;;7343388;32;20216;-61
2022/06/23 03:13:50;;;;;;;3.70;2.20;;;13.90;99.90;;;;;;7338390;32;20186;-61
2022/06/23 03:18:00;;;;;;;6.12;2.33;;;13.80;99.90;;;;;;7341361;32;20140;-61
2022/06/23 03:22:09;;;;;;;2.50;2.15;;;13.80;99.90;;;;;;7345855;32;20111;-61
2022/06/23 03:26:21;;;;;;;3.37;2.50;;;13.70;99.90;;;;;;7340296;32;20107;-61
2022/06/23 03:30:33;;;;;;;4.55;2.62;;;13.70;99.90;;;;;;7337954;32;20315;-61
2022/06/23 03:34:43;;;;;;;5.37;2.55;;;13.70;99.90;;;;;;7344004;32;20528;-61
2022/06/23 03:43:46;;;;;;;4.35;2.65;;;13.60;99.90;;;;;;7341578;32;20325;-61
2022/06/23 03:48:04;;;;;;;5.00;2.50;;;13.60;99.90;;;;;;7343203;32;20492;-61
2022/06/23 03:52:23;;;;;;;4.07;2.78;;;13.60;99.90;;;;;;7336782;32;22206;-61
2022/06/23 03:56:30;;;;;;;5.72;2.70;;;13.60;99.90;;;;;;7338531;32;20828;-60
2022/06/23 04:00:34;;;;;;;5.12;2.75;;;13.60;99.90;;;;;;7342943;32;20609;-61
2022/06/23 04:04:50;;;;;;;4.15;2.15;;;13.60;99.90;;;;;;7339288;32;20218;-61
2022/06/23 04:08:58;;;;;;;5.50;2.47;;;13.70;99.90;;;;;;7339593;32;20116;-61
2022/06/23 04:13:11;;;;;;;5.70;2.50;;;13.70;99.90;;;;;;7335538;32;20238;-59
2022/06/23 04:17:41;;;;;;;5.22;2.85;;;13.80;99.90;;;;;;7337801;32;20111;-60
2022/06/23 04:21:47;;;;;;;4.18;2.37;;;13.90;99.90;;;;;;7331608;32;20512;-60
2022/06/23 04:26:06;;;;;;;6.05;2.78;;;14.00;99.90;;;;;;7337496;32;20981;-63
2022/06/23 04:30:28;;;;;;;3.85;2.75;;;14.20;99.90;;;;;;7339305;32;20265;-64
2022/06/23 04:34:35;;;;;;;4.12;2.37;;;14.40;99.90;;;;;;7343417;32;20107;-64
2022/06/23 04:38:41;;;;;;;8.68;3.08;;;14.50;99.90;;;;;;7340466;32;20294;-64
2022/06/23 04:42:51;;;;;;;5.78;2.40;;;14.70;99.90;;;;;;7340925;32;20440;-64
2022/06/23 04:46:58;;;;;;;7.93;3.15;;;14.90;99.90;;;;;;7339448;32;20111;-63
2022/06/23 04:51:10;;;;;;;3.67;2.60;;;15.10;99.90;;;;;;7335815;32;20862;-64
2022/06/23 04:55:30;;;;;;;5.05;2.62;;;15.40;99.90;;;;;;7344503;32;20689;-64
2022/06/23 04:59:39;;;;;;;4.10;2.75;;;15.60;99.90;;;;;;7330072;32;20398;-64
2022/06/23 05:03:48;;;;;;;4.03;2.67;;;15.80;99.90;;;;;;7338801;32;20136;-63
2022/06/23 05:08:05;;;;;;;5.03;2.90;;;15.90;99.90;;;;;;7340422;32;20107;-63
2022/06/23 05:12:18;;;;;;;4.40;2.75;;;16.10;99.90;;;;;;7349780;32;20224;-63
2022/06/23 05:16:27;;;;;;;3.40;2.33;;;16.30;99.90;;;;;;7345105;32;20209;-62
2022/06/23 05:20:41;;;;;;;4.60;2.20;;;16.60;99.90;;;;;;7344202;32;21800;-62
2022/06/23 05:24:46;;;;;;;8.15;3.08;;;16.90;99.90;;;;;;7343979;32;20722;-63
2022/06/23 05:28:57;;;;;;;4.87;3.22;;;17.10;99.90;;;;;;7344645;32;20439;-63
2022/06/23 05:33:06;;;;;;;7.10;2.90;;;17.40;99.90;;;;;;7338396;32;20115;-63
2022/06/23 05:37:24;;;;;;;6.57;3.15;;;17.70;99.90;;;;;;7346783;32;20129;-63
2022/06/23 05:41:41;;;;;;;4.53;2.30;;;18.10;99.90;;;;;;7341566;32;20522;-63
2022/06/23 05:45:51;;;;;;;3.50;1.83;;;18.40;99.90;;;;;;7333254;32;20115;-64
2022/06/23 05:49:58;;;;;;;3.92;2.10;;;18.80;99.90;;;;;;7343738;32;20219;-63
2022/06/23 05:54:05;;;;;;;5.67;2.00;;;19.30;99.90;;;;;;7338436;32;20145;-64
2022/06/23 05:58:15;;;;;;;3.78;1.70;;;19.80;99.90;;;;;;7337650;32;20225;-64
2022/06/23 06:02:50;;;;;;;4.20;1.92;;;20.20;99.90;;;;;;7340852;32;20672;-64
2022/06/23 06:06:52;;;;;;;5.43;1.95;;;20.50;99.90;;;;;;7343248;32;20547;-64
2022/06/23 06:10:54;;;;;;;4.95;1.83;;;20.70;99.90;;;;;;7340812;32;20309;-64
2022/06/23 06:15:16;;;;;;;4.70;1.95;;;21.00;99.90;;;;;;7340649;32;20165;-64
2022/06/23 06:19:21;;;;;;;5.32;1.95;;;21.30;99.90;;;;;;7342234;32;20195;-65
2022/06/23 06:23:38;;;;;;;7.62;2.30;;;21.60;99.90;;;;;;7339167;32;20112;-64
2022/06/23 06:27:40;;;;;;;4.12;2.05;;;21.80;99.90;;;;;;7340644;32;20443;-65
2022/06/23 06:31:50;;;;;;;6.78;2.35;;;22.20;99.90;;;;;;7345544;32;20567;-64
2022/06/23 06:35:54;;;;;;;3.45;2.22;;;22.50;99.90;;;;;;7341841;32;20229;-64
2022/06/23 06:39:58;;;;;;;6.05;2.42;;;22.60;99.90;;;;;;7343629;32;20114;-64
2022/06/23 06:44:02;;;;;;;6.85;2.40;;;22.70;99.90;;;;;;7339942;32;20114;-64
2022/06/23 06:48:11;;;;;;;5.10;2.35;;;22.90;99.90;;;;;;7337878;32;20115;-64
2022/06/23 06:52:14;;;;;;;6.55;2.10;;;23.00;99.90;;;;;;7338565;32;20212;-63
2022/06/23 06:56:40;;;;;;;5.87;2.00;;;23.10;99.90;;;;;;7338062;32;20111;-64
2022/06/23 07:00:48;;;;;;;4.57;2.30;;;23.20;99.90;;;;;;7339140;32;20127;-63
2022/06/23 07:04:56;;;;;;;6.20;2.40;;;23.30;99.90;;;;;;7340073;32;20636;-63
2022/06/23 07:08:57;;;;;;;6.37;2.25;;;23.50;99.90;;;;;;7342265;32;20206;-64
2022/06/23 07:13:05;;;;;;;9.25;2.65;;;23.60;99.90;;;;;;7341393;32;20112;-63
2022/06/23 07:17:18;;;;;;;6.12;2.28;;;23.70;99.90;;;;;;7340826;32;20128;-63
2022/06/23 07:21:35;;;;;;;5.05;2.50;;;23.80;99.90;;;;;;7342136;32;20558;-64
2022/06/23 07:25:51;;;;;;;8.65;2.97;;;23.90;99.90;;;;;;7342564;32;20199;-63
2022/06/23 07:30:12;;;;;;;7.82;2.40;;;24.00;99.90;;;;;;7340031;32;20601;-63
2022/06/23 07:34:17;;;;;;;4.25;2.50;;;24.10;99.90;;;;;;7339489;32;20134;-65
2022/06/23 07:38:29;;;;;;;5.60;2.62;;;24.10;99.90;;;;;;7342004;32;20134;-65
2022/06/23 07:42:44;;;;;;;6.95;2.67;;;24.20;99.90;;;;;;7343222;32;20496;-64
2022/06/23 07:46:45;;;;;;;6.28;2.70;;;24.30;99.90;;;;;;7339383;32;20117;-64
2022/06/23 07:50:47;;;;;;;7.20;2.75;;;24.50;99.90;;;;;;7342338;32;20206;-65
2022/06/23 07:54:50;;;;;;;8.82;3.17;;;24.60;99.90;;;;;;7342913;32;20159;-64
2022/06/23 07:59:11;;;;;;;6.78;3.10;;;24.80;99.90;;;;;;7337698;32;20129;-64
2022/06/23 08:03:29;;;;;;;8.00;2.72;;;25.00;99.90;;;;;;7339271;32;20121;-64
2022/06/23 08:07:32;;;;;;;6.07;2.80;;;25.20;99.90;;;;;;7336322;32;20462;-65
2022/06/23 08:20:40;;;;;;;6.45;3.33;;;25.80;99.90;;;;;;7340183;32;20094;-64
2022/06/23 08:24:45;;;;;;;9.07;3.15;;;26.00;99.90;;;;;;7338245;32;20131;-65
2022/06/23 08:29:11;;;;;;;8.68;2.92;;;26.20;99.90;;;;;;7339385;32;20618;-64
2022/06/23 08:33:13;;;;;;;;;;;26.50;99.90;;;;;;7340260;32;20751;-64
2022/06/23 08:37:19;;;;;;;6.20;2.80;;;26.80;99.90;;;;;;7336557;32;20124;-64
2022/06/23 08:41:40;;;;;;;6.53;3.05;;;27.10;99.90;;;;;;7336579;32;20137;-65
2022/06/23 08:46:12;;;;;;;5.72;2.40;;;27.30;99.90;;;;;;7343154;32;20197;-64
2022/06/23 08:50:35;;;;;;;5.40;2.50;;;27.50;99.90;;;;;;7343205;32;20364;-65
2022/06/23 08:54:43;;;;;;;7.93;2.80;;;27.90;99.90;;;;;;7339951;32;20188;-65
2022/06/23 08:58:57;;;;;;;4.55;2.80;;;28.00;99.90;;;;;;7342356;32;20566;-66
2022/06/23 09:03:06;;;;;;;4.22;2.55;;;28.30;99.80;;;;;;7345590;32;20234;-65
2022/06/23 09:07:19;;;;;;;6.70;3.00;;;28.40;97.90;;;;;;7349728;32;20500;-65
2022/06/23 09:11:27;;;;;;;7.15;2.83;;;28.80;97.20;;;;;;7347575;32;20103;-66
2022/06/23 09:15:56;;;;;;;5.68;2.50;;;29.20;97.20;;;;;;7343454;32;20241;-66
2022/06/23 09:20:27;;;;;;;6.60;2.60;;;29.60;95.50;;;;;;7342047;32;20205;-65
2022/06/23 09:24:50;;;;;;;4.45;2.53;;;29.80;94.20;;;;;;7347758;32;20103;-58
2022/06/23 09:29:25;;;;;;;5.07;2.33;;;29.80;91.50;;;;;;7345377;32;20484;-58
2022/06/23 09:33:35;;;;;;;4.82;2.60;;;30.10;91.70;;;;;;7339263;32;20432;-59
2022/06/23 09:37:57;;;;;;;7.12;2.70;;;30.30;90.50;;;;;;7335766;32;20424;-58
2022/06/23 09:42:24;;;;;;;7.28;2.65;;;30.50;85.60;;;;;;7339618;32;20678;-58
2022/06/23 09:46:35;;;;;;;5.47;2.28;;;30.90;85.40;;;;;;7344894;32;20154;-58
2022/06/23 09:50:57;;;;;;;6.78;2.55;;;31.00;85.40;;;;;;7349176;32;20127;-65
2022/06/23 09:55:56;;;;;;;5.68;2.50;;;31.30;84.20;;;;;;7347693;32;20635;-65
2022/06/23 10:00:17;;;;;;;6.32;2.50;;;31.60;81.60;;;;;;7274627;32;20124;-65
2022/06/23 10:04:34;;;;;;;6.03;2.20;;;31.80;80.10;;;;;;7307842;32;20186;-64
2022/06/23 10:08:50;;;;;;;5.60;2.20;;;31.90;79.20;;;;;;7338883;32;20122;-66
2022/06/23 10:13:17;;;;;;;4.25;2.20;;;31.80;78.60;;;;;;7344194;32;20150;-65
2022/06/23 10:17:43;;;;;;;3.62;2.45;;;32.40;82.20;;;;;;7336402;32;20224;-65
2022/06/23 10:22:06;;;;;;;7.07;2.37;;;32.70;77.10;;;;;;7342219;32;20210;-65
2022/06/23 10:26:46;;;;;;;5.28;2.17;;;32.60;77.20;;;;;;7346974;32;20197;-65
2022/06/23 10:31:11;;;;;;;5.53;2.30;;;32.50;73.00;;;;;;7282273;32;20182;-65
2022/06/23 10:35:54;;;;;;;4.65;2.60;;;32.40;75.00;;;;;;7343725;32;20206;-66
2022/06/23 10:40:02;;;;;;;3.15;2.20;;;32.40;70.50;;;;;;7343377;32;20477;-66
2022/06/23 10:44:35;;;;;;;5.18;2.53;;;32.60;72.30;;;;;;7338410;32;20195;-66
2022/06/23 10:49:13;;;;;;;8.57;2.92;;;32.40;70.50;;;;;;7340733;32;20155;-65
2022/06/23 10:53:31;;;;;;;3.80;2.30;;;32.10;72.80;;;;;;7343530;32;20131;-65
2022/06/23 10:57:43;;;;;;;3.40;2.35;;;32.40;70.00;;;;;;7339203;32;20186;-65
2022/06/23 11:01:54;;;;;;;4.75;2.42;;;32.80;72.10;;;;;;7341831;32;20115;-64
2022/06/23 11:06:18;;;;;;;6.18;2.40;;;32.80;72.30;;;;;;7336064;32;20131;-65
2022/06/23 11:10:42;;;;;;;5.22;2.60;;;32.70;67.20;;;;;;7331734;32;20526;-65
2022/06/23 11:14:54;;;;;;;4.65;2.17;;;32.80;70.20;;;;;;7342715;32;20628;-65
2022/06/23 11:19:10;;;;;;;7.90;2.33;;;33.00;71.00;;;;;;7337118;32;20111;-65
2022/06/23 11:23:56;;;;;;;5.90;2.42;;;32.80;69.70;;;;;;7339063;32;20444;-64
2022/06/23 11:28:14;;;;;;;5.80;2.50;;;32.80;70.00;;;;;;7285470;32;20199;-65
2022/06/23 11:32:40;;;;;;;5.12;2.47;;;32.70;67.80;;;;;;7333552;32;20122;-65
2022/06/23 11:37:00;;;;;;;3.97;2.55;;;32.60;67.30;;;;;;7337686;32;20153;-65
2022/06/23 11:41:15;;;;;;;4.10;2.47;;;32.50;69.60;;;;;;7334817;32;20231;-64
2022/06/23 11:45:45;;;;;;;5.03;2.70;;;32.40;67.00;;;;;;7336428;32;20227;-65
2022/06/23 11:49:49;;;;;;;4.95;2.60;;;32.20;71.10;;;;;;7336443;32;20126;-65
2022/06/23 11:53:59;;;;;;;3.85;2.40;;;32.10;70.40;;;;;;7336219;32;20139;-65
2022/06/23 11:58:32;;;;;;;5.30;2.10;;;32.30;69.70;;;;;;7336667;32;20137;-65
2022/06/23 12:03:12;;;;;;;5.18;2.15;;;32.30;68.30;;;;;;7338874;32;20293;-64
2022/06/23 12:07:40;;;;;;;4.15;2.78;;;32.20;68.10;;;;;;7324889;32;20112;-65
2022/06/23 12:11:43;;;;;;;5.95;2.90;;;32.20;66.70;;;;;;7331829;32;20123;-66
2022/06/23 12:15:49;;;;;;;7.57;2.60;;;32.10;69.50;;;;;;7337344;32;20555;-65
2022/06/23 12:19:59;;;;;;;4.28;2.30;;;32.00;68.70;;;;;;7338267;32;20212;-65
2022/06/23 12:24:17;;;;;;;4.57;2.35;;;32.20;68.10;;;;;;7336499;32;20137;-65
2022/06/23 12:28:27;;;;;;;4.95;2.67;;;32.20;66.00;;;;;;7324702;32;20202;-64
2022/06/23 12:32:44;;;;;;;5.75;2.45;;;32.40;70.10;;;;;;7332927;32;20649;-65
2022/06/23 12:36:48;;;;;;;;;;;32.40;67.40;;;;;;7336763;32;20516;-66
2022/06/23 12:41:01;;;;;;;6.87;2.50;;;32.40;68.00;;;;;;7343197;32;20019;-65
2022/06/23 12:45:34;;;;;;;4.00;2.50;;;32.20;66.90;;;;;;7336365;32;20375;-65
2022/06/23 12:49:53;;;;;;;4.72;2.37;;;32.30;66.90;;;;;;7347823;32;20126;-64
2022/06/23 12:54:29;;;;;;;5.53;2.50;;;32.40;65.20;;;;;;7340903;32;20111;-64
2022/06/23 12:58:50;;;;;;;5.28;2.22;;;32.40;66.70;;;;;;7335775;32;20487;-65
2022/06/23 13:02:59;;;;;;;6.28;2.47;;;32.50;66.60;;;;;;7332736;32;20230;-65
2022/06/23 13:07:16;;;;;;;7.22;2.42;;;32.40;63.20;;;;;;7339201;32;20115;-66
2022/06/23 13:11:46;;;;;;;4.43;2.05;;;32.60;68.10;;;;;;7334942;32;20571;-65
2022/06/23 13:16:00;;;;;;;7.72;2.60;;;32.70;66.50;;;;;;7317217;32;20099;-64
2022/06/23 13:20:16;;;;;;;6.68;2.70;;;32.60;62.10;;;;;;7333701;32;20154;-65
2022/06/23 13:24:22;;;;;;;4.32;2.25;;;32.60;63.20;;;;;;7343572;32;20115;-64
2022/06/23 13:28:39;;;;;;;10.05;2.67;;;32.80;65.50;;;;;;7338703;32;20414;-66
2022/06/23 13:33:21;;;;;;;3.70;2.00;;;32.90;62.10;;;;;;7339946;32;20137;-65
2022/06/23 13:37:38;;;;;;;8.98;2.20;;;32.80;63.80;;;;;;7335771;32;20115;-65
2022/06/23 13:42:04;;;;;;;5.70;3.25;;;32.70;62.70;;;;;;7338185;32;20205;-66
2022/06/23 13:46:39;;;;;;;3.30;1.83;;;32.70;63.50;;;;;;7328854;32;20242;-64
2022/06/23 13:51:09;;;;;;;4.10;2.35;;;32.60;62.50;;;;;;7333734;32;20222;-65
2022/06/23 13:55:22;;;;;;;4.00;2.20;;;32.50;63.60;;;;;;7341795;32;20137;-64
2022/06/23 13:59:49;;;;;;;4.93;1.98;;;32.60;62.20;;;;;;7337320;32;20437;-64
2022/06/23 14:04:20;;;;;;;7.90;2.37;;;32.70;62.20;;;;;;7335367;32;20134;-65
2022/06/23 14:08:35;;;;;;;5.90;2.60;;;32.70;61.80;;;;;;7338866;32;20455;-65
2022/06/23 14:13:02;;;;;;;7.05;2.33;;;32.60;60.90;;;;;;7335946;32;20129;-64
2022/06/23 14:17:12;;;;;;;6.12;2.25;;;32.40;61.90;;;;;;7340550;32;20130;-65
2022/06/23 14:21:28;;;;;;;2.45;1.80;;;32.50;64.40;;;;;;7336632;32;20107;-64
2022/06/23 14:26:10;;;;;;;4.30;2.20;;;32.50;61.60;;;;;;7338110;32;20226;-65
2022/06/23 14:30:15;;;;;;;6.37;2.30;;;32.30;61.90;;;;;;7330772;32;20233;-65
2022/06/23 14:34:31;;;;;;;5.82;2.33;;;32.10;60.90;;;;;;7336119;32;20251;-65
2022/06/23 14:39:00;;;;;;;3.50;2.25;;;32.20;63.90;;;;;;7335181;32;20218;-66
2022/06/23 14:43:14;;;;;;;6.75;2.58;;;32.20;64.00;;;;;;7337306;32;20537;-64
2022/06/23 14:47:25;;;;;;;5.45;2.00;;;32.10;65.50;;;;;;7333454;32;20221;-64
2022/06/23 14:51:48;;;;;;;3.85;1.90;;;32.00;63.50;;;;;;7341516;32;20120;-64
2022/06/23 14:56:14;;;;;;;5.70;2.33;;;31.70;62.20;;;;;;7340834;32;20342;-64
2022/06/23 15:00:23;;;;;;;8.15;2.50;;;31.60;64.70;;;;;;7333673;32;20202;-64
2022/06/23 15:04:31;;;;;;;5.25;2.72;;;31.60;67.40;;;;;;7333343;32;20327;-64
2022/06/23 15:08:58;;;;;;;6.47;2.58;;;31.60;68.60;;;;;;7338994;32;20209;-64
2022/06/23 15:13:34;;;;;;;6.68;2.42;;;31.70;65.60;;;;;;7337583;32;20455;-64
2022/06/23 15:18:00;;;;;;;6.28;2.45;;;31.50;65.70;;;;;;7328297;32;20107;-64
2022/06/23 15:26:54;;;;;;;5.37;2.70;;;30.90;67.60;;;;;;7337188;32;20111;-65
2022/06/23 15:31:01;;;;;;;7.10;3.03;;;30.50;69.80;;;;;;7341869;32;20111;-65
2022/06/23 15:35:22;;;;;;;7.43;2.80;;;30.60;70.90;;;;;;7334743;32;20560;-65
2022/06/23 15:39:36;;;;;;;6.57;3.50;;;30.70;72.20;;;;;;7340159;32;20107;-64
2022/06/23 15:44:17;;;;;;;6.93;2.92;;;31.10;70.60;;;;;;7332316;32;20141;-64
2022/06/23 15:48:47;;;;;;;5.32;2.75;;;31.10;72.50;;;;;;7325718;32;20126;-65
2022/06/23 15:53:23;;;;;;;7.07;2.85;;;31.10;70.60;;;;;;7338967;32;20483;-64
2022/06/23 15:57:40;;;;;;;5.55;2.60;;;31.10;73.80;;;;;;7340677;32;20198;-66
2022/06/23 16:01:54;;;;;;;8.40;2.80;;;31.10;68.90;;;;;;7337692;32;20832;-63
2022/06/23 16:06:03;;;;;;;6.70;3.03;;;31.10;70.90;;;;;;7337241;32;20686;-64
2022/06/23 16:10:19;;;;;;;7.90;2.95;;;31.00;71.60;;;;;;7343565;32;20106;-64
2022/06/23 16:14:26;;;;;;;5.03;2.67;;;30.90;70.10;;;;;;7346636;32;20107;-64
2022/06/23 16:18:39;;;;;;;7.10;3.20;;;30.60;70.30;;;;;;7340523;32;20129;-64
2022/06/23 16:22:47;;;;;;;9.05;3.25;;;30.40;70.70;;;;;;7346954;32;20125;-64
2022/06/23 16:26:49;;;;;;;6.00;2.87;;;30.30;71.00;;;;;;7345327;32;20157;-64
2022/06/23 16:30:53;;;;;;;9.93;3.00;;;30.30;72.30;;;;;;7329484;32;20221;-64
2022/06/23 16:35:07;;;;;;;7.20;2.97;;;30.20;72.40;;;;;;7338617;32;20262;-64
2022/06/23 16:39:16;;;;;;;5.47;3.10;;;30.30;72.70;;;;;;7344720;32;20103;-65
2022/06/23 16:43:27;;;;;;;6.60;3.20;;;30.40;71.80;;;;;;7344493;32;20336;-64
2022/06/23 16:47:47;;;;;;;9.15;2.80;;;30.30;72.70;;;;;;7338621;32;20202;-64
2022/06/23 16:52:02;;;;;;;8.27;3.47;;;30.20;73.20;;;;;;7345807;32;20566;-65
2022/06/23 16:56:16;;;;;;;7.37;3.17;;;29.90;73.90;;;;;;7339235;32;20429;-65
2022/06/23 17:00:24;;;;;;;9.07;3.28;;;29.70;74.50;;;;;;7338989;32;20606;-65
2022/06/23 17:04:29;;;;;;;9.43;3.40;;;29.50;75.80;;;;;;7349803;32;20237;-65
2022/06/23 17:08:41;;;;;;;6.65;3.20;;;29.40;75.80;;;;;;7343877;32;20220;-67
2022/06/23 17:13:07;;;;;;;5.37;2.95;;;29.30;78.40;;;;;;7346617;32;20534;-67
2022/06/23 17:17:15;;;;;;;11.57;4.30;;;29.30;78.10;;;;;;7344758;32;20531;-67
2022/06/23 17:21:27;;;;;;;8.02;3.33;;;29.20;80.90;;;;;;7339579;32;20118;-66
2022/06/23 17:25:44;;;;;;;8.38;3.83;;;29.00;81.20;;;;;;7338867;32;20111;-67
2022/06/23 17:30:05;;;;;;;6.82;2.65;;;28.90;82.30;;;;;;7347684;32;20130;-67
2022/06/23 17:34:18;;;;;;;8.23;3.40;;;28.80;81.20;;;;;;7339763;32;20261;-67
2022/06/23 17:47:34;;;;;;;5.62;3.17;;;28.30;86.60;;;;;;7344829;32;20138;-67
2022/06/23 17:51:44;;;;;;;5.62;3.53;;;28.10;88.10;;;;;;7342401;32;20492;-67
2022/06/23 17:55:47;;;;;;;8.65;3.55;;;28.00;89.60;;;;;;7343915;32;20139;-66
2022/06/23 18:00:15;;;;;;;13.38;4.50;;;27.80;90.30;;;;;;7338690;32;20903;-66
2022/06/23 18:04:17;;;;;;;44.03;18.50;;;27.70;90.90;;;;;;7341946;32;20478;-66
2022/06/23 18:08:21;;;;;;;35.33;13.82;;;27.60;91.20;;;;;;7337535;32;20193;-66
2022/06/23 18:12:26;;;;;;;94.75;32.47;;;27.50;92.20;;;;;;7337929;32;20237;-66
2022/06/23 18:16:40;;;;;;;81.68;30.45;;;27.50;94.20;;;;;;7339570;32;20138;-67
2022/06/23 18:21:01;;;;;;;21.90;8.18;;;27.40;98.70;;;;;;7339508;32;20143;-66
2022/06/23 18:25:28;;;;;;;15.20;4.30;;;27.20;99.90;;;;;;7346392;32;20106;-61
2022/06/23 18:29:52;;;;;;;15.38;4.93;;;27.00;99.90;;;;;;7337670;32;20584;-66
2022/06/23 18:34:00;;;;;;;10.00;4.50;;;26.70;99.90;;;;;;7341690;32;20194;-65
2022/06/23 18:38:24;;;;;;;11.95;4.97;;;26.50;99.90;;;;;;7343698;32;20115;-67
2022/06/23 18:42:49;;;;;;;14.50;4.72;;;26.40;99.90;;;;;;7347100;32;20112;-66
2022/06/23 18:46:57;;;;;;;10.75;5.10;;;26.20;99.90;;;;;;7344570;32;20590;-66
2022/06/23 18:51:06;;;;;;;13.82;4.80;;;26.10;99.90;;;;;;7341867;32;20129;-65
2022/06/23 18:55:51;;;;;;;13.45;5.32;;;25.90;99.90;;;;;;7342447;32;20126;-67
2022/06/23 19:00:04;;;;;;;8.70;4.45;;;25.70;99.90;;;;;;7340787;32;20638;-71
2022/06/23 19:04:10;;;;;;;6.95;4.93;;;25.40;99.90;;;;;;7339141;32;20102;-70
2022/06/23 19:08:31;;;;;;;9.20;4.80;;;25.10;99.90;;;;;;7333711;32;20111;-69
2022/06/23 19:12:47;;;;;;;12.05;5.20;;;25.00;99.90;;;;;;7341068;32;20305;-70
2022/06/23 19:17:10;;;;;;;18.77;12.80;;;24.80;99.90;;;;;;7335098;32;20154;-67
2022/06/23 19:21:24;;;;;;;14.87;5.97;;;24.70;99.90;;;;;;7342053;32;20108;-69
2022/06/23 19:25:52;;;;;;;8.68;4.20;;;24.50;99.90;;;;;;7339763;32;20131;-67
2022/06/23 19:30:04;;;;;;;13.35;4.45;;;24.40;99.90;;;;;;7342365;32;20107;-68
2022/06/23 19:34:21;;;;;;;7.78;3.72;;;24.50;99.90;;;;;;7340494;32;20126;-69
2022/06/23 19:38:39;;;;;;;9.38;3.45;;;24.50;99.90;;;;;;7343370;32;20630;-70
2022/06/23 19:42:56;;;;;;;11.30;3.58;;;24.70;99.90;;;;;;7340241;32;20591;-70
2022/06/23 19:47:28;;;;;;;11.20;3.80;;;24.60;99.90;;;;;;7333511;32;20615;-68
2022/06/23 19:51:34;;;;;;;12.05;3.97;;;24.50;99.90;;;;;;7335076;32;20198;-70
2022/06/23 19:55:39;;;;;;;11.48;3.95;;;24.50;99.90;;;;;;7341271;32;20166;-68
2022/06/23 19:59:53;;;;;;;11.65;4.18;;;24.30;99.90;;;;;;7334338;32;20292;-69
2022/06/23 20:04:28;;;;;;;13.68;4.20;;;24.20;99.90;;;;;;7341291;32;20197;-66
2022/06/23 20:08:43;;;;;;;14.02;5.20;;;24.00;99.90;;;;;;7341500;32;20172;-66
2022/06/23 20:12:45;;;;;;;11.02;5.10;;;23.90;99.90;;;;;;7335338;32;20108;-64
2022/06/23 20:17:06;;;;;;;12.15;4.85;;;23.80;99.90;;;;;;7340357;32;20131;-64
2022/06/23 20:21:30;;;;;;;12.68;4.68;;;23.70;99.90;;;;;;7338548;32;20252;-65
2022/06/23 20:25:40;;;;;;;11.20;5.12;;;23.50;99.90;;;;;;7342716;32;20241;-66
2022/06/23 20:30:13;;;;;;;11.85;5.10;;;23.40;99.90;;;;;;7341091;32;20598;-65
2022/06/23 20:34:42;;;;;;;13.55;5.30;;;23.30;99.90;;;;;;7342020;32;20115;-63
2022/06/23 20:39:13;;;;;;;13.35;5.03;;;23.20;99.90;;;;;;7345223;32;20123;-65
2022/06/23 20:43:28;;;;;;;12.00;4.40;;;23.00;99.90;;;;;;7356749;32;20146;-66
2022/06/23 20:47:39;;;;;;;11.02;4.90;;;22.80;99.90;;;;;;7347712;32;20265;-65
2022/06/23 20:51:51;;;;;;;13.52;4.82;;;22.70;99.90;;;;;;7345006;32;20857;-67
2022/06/23 20:56:20;;;;;;;10.20;5.22;;;22.60;99.90;;;;;;7344513;32;20136;-66
2022/06/23 21:00:23;;;;;;;14.15;5.55;;;22.40;99.90;;;;;;7346349;32;20546;-64
2022/06/23 21:04:33;;;;;;;12.02;5.62;;;22.20;99.90;;;;;;7342877;32;20249;-64
2022/06/23 21:08:47;;;;;;;12.77;5.20;;;22.20;99.90;;;;;;7339149;32;20111;-62
2022/06/23 21:12:58;;;;;;;13.10;5.60;;;22.10;99.90;;;;;;7341950;32;20115;-60
2022/06/23 21:17:42;;;;;;;12.95;5.68;;;22.00;99.90;;;;;;7348292;32;20149;-62
2022/06/23 21:22:12;;;;;;;12.45;5.75;;;21.90;99.90;;;;;;7344336;32;20130;-62
2022/06/23 21:26:48;;;;;;;13.68;5.68;;;21.70;99.90;;;;;;7343191;32;20601;-62
2022/06/23 21:31:10;;;;;;;8.63;5.43;;;21.60;99.90;;;;;;7341075;32;20470;-63
2022/06/23 21:35:18;;;;;;;12.05;5.85;;;21.50;99.90;;;;;;7340580;32;20613;-62
2022/06/23 21:39:45;;;;;;;12.77;5.90;;;21.40;99.90;;;;;;7345407;32;20143;-63
2022/06/23 21:43:58;;;;;;;14.95;5.93;;;21.30;99.90;;;;;;7336694;32;20600;-63
2022/06/23 21:48:24;;;;;;;12.10;6.32;;;21.20;99.90;;;;;;7340888;32;20107;-63
2022/06/23 21:52:50;;;;;;;13.73;5.32;;;21.20;99.90;;;;;;7342912;32;20107;-63
2022/06/23 21:57:27;;;;;;;14.63;5.78;;;21.10;99.90;;;;;;7337990;32;20233;-63
2022/06/23 22:01:32;;;;;;;9.52;5.65;;;21.00;99.90;;;;;;7335747;32;20210;-63
2022/06/23 22:06:03;;;;;;;14.82;5.72;;;20.90;99.90;;;;;;7342260;32;20135;-65
2022/06/23 22:10:15;;;;;;;10.65;6.05;;;20.90;99.90;;;;;;7335737;32;20115;-63
2022/06/23 22:14:28;;;;;;;9.20;6.05;;;20.90;99.90;;;;;;7344342;32;20111;-63
2022/06/23 22:19:14;;;;;;;10.75;6.50;;;20.90;99.90;;;;;;7343537;32;20111;-63
2022/06/23 22:23:17;;;;;;;11.30;6.22;;;20.90;99.90;;;;;;7308042;32;20107;-63
2022/06/23 22:27:48;;;;;;;12.95;6.60;;;20.90;99.90;;;;;;7339606;32;20112;-63
2022/06/23 22:32:10;;;;;;;10.93;6.47;;;20.90;99.90;;;;;;7344569;32;20266;-64
2022/06/23 22:36:21;;;;;;;12.45;5.80;;;20.80;99.90;;;;;;7341636;32;20182;-62
2022/06/23 22:40:25;;;;;;;12.82;6.37;;;20.80;99.90;;;;;;7339653;32;20212;-63